sensor_id;sensor_type;location;lat;lon;timestamp;P1;durP1;ratioP1;P2;durP2;ratioP2
71125;SDS011;58785;55.566;38.058;2023-02-10T00:01:32;9.65;;;2.88;;
71125;SDS011;58785;55.566;38.058;2023-02-10T00:03:57;10.68;;;3.28;;
71125;SDS011;58785;55.566;38.058;2023-02-10T00:06:24;12.20;;;2.77;;
71125;SDS011;58785;55.566;38.058;2023-02-10T00:08:53;12.93;;;3.17;;
71125;SDS011;58785;55.566;38.058;2023-02-10T00:11:20;7.07;;;2.05;;
71125;SDS011;58785;55.566;38.058;2023-02-10T00:14:10;9.55;;;2.85;;
71125;SDS011;58785;55.566;38.058;2023-02-10T00:16:36;11.70;;;2.60;;
71125;SDS011;58785;55.566;38.058;2023-02-10T00:19:02;8.90;;;2.80;;
71125;SDS011;58785;55.566;38.058;2023-02-10T00:21:28;10.02;;;2.47;;
71125;SDS011;58785;55.566;38.058;2023-02-10T00:23:54;9.55;;;3.00;;
71125;SDS011;58785;55.566;38.058;2023-02-10T00:26:20;7.03;;;2.47;;
71125;SDS011;58785;55.566;38.058;2023-02-10T00:28:45;7.07;;;2.27;;
71125;SDS011;58785;55.566;38.058;2023-02-10T00:31:12;10.18;;;2.78;;
71125;SDS011;58785;55.566;38.058;2023-02-10T00:33:39;8.10;;;2.35;;
71125;SDS011;58785;55.566;38.058;2023-02-10T00:36:07;8.47;;;2.50;;
71125;SDS011;58785;55.566;38.058;2023-02-10T00:38:34;7.05;;;2.05;;
71125;SDS011;58785;55.566;38.058;2023-02-10T00:41:07;8.07;;;2.30;;
71125;SDS011;58785;55.566;38.058;2023-02-10T00:43:35;7.93;;;2.20;;
71125;SDS011;58785;55.566;38.058;2023-02-10T00:46:11;7.43;;;2.28;;
71125;SDS011;58785;55.566;38.058;2023-02-10T00:48:37;7.77;;;2.93;;
71125;SDS011;58785;55.566;38.058;2023-02-10T00:51:03;6.78;;;1.83;;
71125;SDS011;58785;55.566;38.058;2023-02-10T00:53:29;7.75;;;2.33;;
71125;SDS011;58785;55.566;38.058;2023-02-10T00:55:54;7.90;;;1.93;;
71125;SDS011;58785;55.566;38.058;2023-02-10T00:58:20;6.70;;;2.25;;
71125;SDS011;58785;55.566;38.058;2023-02-10T01:00:46;8.17;;;2.53;;
71125;SDS011;58785;55.566;38.058;2023-02-10T01:03:12;8.00;;;2.22;;
71125;SDS011;58785;55.566;38.058;2023-02-10T01:05:38;6.13;;;1.73;;
71125;SDS011;58785;55.566;38.058;2023-02-10T01:08:04;8.90;;;2.63;;
71125;SDS011;58785;55.566;38.058;2023-02-10T01:10:31;6.18;;;2.08;;
71125;SDS011;58785;55.566;38.058;2023-02-10T01:13:04;8.43;;;1.83;;
71125;SDS011;58785;55.566;38.058;2023-02-10T01:15:31;8.13;;;2.63;;
71125;SDS011;58785;55.566;38.058;2023-02-10T01:17:57;8.73;;;2.50;;
71125;SDS011;58785;55.566;38.058;2023-02-10T01:20:22;8.65;;;2.58;;
71125;SDS011;58785;55.566;38.058;2023-02-10T01:22:49;7.75;;;1.92;;
71125;SDS011;58785;55.566;38.058;2023-02-10T01:25:14;7.97;;;2.23;;
71125;SDS011;58785;55.566;38.058;2023-02-10T01:27:40;8.20;;;2.40;;
71125;SDS011;58785;55.566;38.058;2023-02-10T01:30:06;8.40;;;2.47;;
71125;SDS011;58785;55.566;38.058;2023-02-10T01:32:32;7.43;;;2.17;;
71125;SDS011;58785;55.566;38.058;2023-02-10T01:34:58;6.40;;;1.97;;
71125;SDS011;58785;55.566;38.058;2023-02-10T01:37:23;10.50;;;2.28;;
71125;SDS011;58785;55.566;38.058;2023-02-10T01:39:49;8.77;;;2.60;;
71125;SDS011;58785;55.566;38.058;2023-02-10T01:42:14;6.50;;;1.80;;
71125;SDS011;58785;55.566;38.058;2023-02-10T01:47:06;7.37;;;2.07;;
71125;SDS011;58785;55.566;38.058;2023-02-10T01:49:33;6.45;;;2.08;;
71125;SDS011;58785;55.566;38.058;2023-02-10T01:52:16;6.30;;;1.70;;
71125;SDS011;58785;55.566;38.058;2023-02-10T01:54:50;6.88;;;2.17;;
71125;SDS011;58785;55.566;38.058;2023-02-10T01:57:21;7.53;;;2.10;;
71125;SDS011;58785;55.566;38.058;2023-02-10T01:59:48;7.77;;;2.17;;
71125;SDS011;58785;55.566;38.058;2023-02-10T02:02:14;10.07;;;2.50;;
71125;SDS011;58785;55.566;38.058;2023-02-10T02:07:08;6.53;;;2.07;;
71125;SDS011;58785;55.566;38.058;2023-02-10T02:09:34;11.95;;;2.63;;
71125;SDS011;58785;55.566;38.058;2023-02-10T02:12:09;7.60;;;2.63;;
71125;SDS011;58785;55.566;38.058;2023-02-10T02:14:53;9.88;;;2.65;;
71125;SDS011;58785;55.566;38.058;2023-02-10T02:34:51;9.00;;;2.00;;
71125;SDS011;58785;55.566;38.058;2023-02-10T02:37:28;5.68;;;1.52;;
71125;SDS011;58785;55.566;38.058;2023-02-10T02:39:56;8.63;;;2.60;;
71125;SDS011;58785;55.566;38.058;2023-02-10T02:42:29;6.53;;;2.33;;
71125;SDS011;58785;55.566;38.058;2023-02-10T02:44:57;6.85;;;2.45;;
71125;SDS011;58785;55.566;38.058;2023-02-10T02:47:59;7.53;;;2.65;;
71125;SDS011;58785;55.566;38.058;2023-02-10T02:53:39;7.97;;;2.27;;
71125;SDS011;58785;55.566;38.058;2023-02-10T03:01:32;7.03;;;2.03;;
71125;SDS011;58785;55.566;38.058;2023-02-10T03:04:02;9.10;;;3.03;;
71125;SDS011;58785;55.566;38.058;2023-02-10T03:06:31;9.17;;;2.77;;
71125;SDS011;58785;55.566;38.058;2023-02-10T03:08:56;8.98;;;1.92;;
71125;SDS011;58785;55.566;38.058;2023-02-10T03:11:22;10.52;;;2.80;;
71125;SDS011;58785;55.566;38.058;2023-02-10T03:13:47;10.07;;;3.00;;
71125;SDS011;58785;55.566;38.058;2023-02-10T03:16:13;8.33;;;2.83;;
71125;SDS011;58785;55.566;38.058;2023-02-10T03:18:38;7.22;;;2.70;;
71125;SDS011;58785;55.566;38.058;2023-02-10T03:21:04;7.03;;;2.20;;
71125;SDS011;58785;55.566;38.058;2023-02-10T03:23:30;7.97;;;2.55;;
71125;SDS011;58785;55.566;38.058;2023-02-10T03:25:58;12.57;;;3.40;;
71125;SDS011;58785;55.566;38.058;2023-02-10T03:28:27;11.55;;;2.75;;
71125;SDS011;58785;55.566;38.058;2023-02-10T03:30:53;10.40;;;3.40;;
71125;SDS011;58785;55.566;38.058;2023-02-10T03:33:20;11.77;;;2.93;;
71125;SDS011;58785;55.566;38.058;2023-02-10T03:35:46;12.13;;;3.38;;
71125;SDS011;58785;55.566;38.058;2023-02-10T03:38:12;7.75;;;3.00;;
71125;SDS011;58785;55.566;38.058;2023-02-10T03:40:38;9.07;;;3.07;;
71125;SDS011;58785;55.566;38.058;2023-02-10T03:43:04;14.38;;;3.53;;
71125;SDS011;58785;55.566;38.058;2023-02-10T03:45:30;11.32;;;3.42;;
71125;SDS011;58785;55.566;38.058;2023-02-10T03:47:56;9.70;;;3.07;;
71125;SDS011;58785;55.566;38.058;2023-02-10T03:50:21;9.88;;;3.30;;
71125;SDS011;58785;55.566;38.058;2023-02-10T03:52:47;11.80;;;3.40;;
71125;SDS011;58785;55.566;38.058;2023-02-10T03:55:13;10.73;;;3.60;;
71125;SDS011;58785;55.566;38.058;2023-02-10T03:57:42;9.87;;;3.83;;
71125;SDS011;58785;55.566;38.058;2023-02-10T04:00:09;10.32;;;3.10;;
71125;SDS011;58785;55.566;38.058;2023-02-10T04:02:36;9.25;;;3.72;;
71125;SDS011;58785;55.566;38.058;2023-02-10T04:05:01;8.73;;;3.20;;
71125;SDS011;58785;55.566;38.058;2023-02-10T04:07:28;9.30;;;3.60;;
71125;SDS011;58785;55.566;38.058;2023-02-10T04:09:54;9.52;;;2.40;;
71125;SDS011;58785;55.566;38.058;2023-02-10T04:12:19;11.50;;;3.57;;
71125;SDS011;58785;55.566;38.058;2023-02-10T04:14:45;10.18;;;3.33;;
71125;SDS011;58785;55.566;38.058;2023-02-10T04:17:10;8.97;;;3.07;;
71125;SDS011;58785;55.566;38.058;2023-02-10T04:19:36;10.40;;;3.43;;
71125;SDS011;58785;55.566;38.058;2023-02-10T04:22:02;9.50;;;3.17;;
71125;SDS011;58785;55.566;38.058;2023-02-10T04:24:28;10.13;;;3.10;;
71125;SDS011;58785;55.566;38.058;2023-02-10T04:26:53;13.13;;;3.50;;
71125;SDS011;58785;55.566;38.058;2023-02-10T04:29:19;11.73;;;3.65;;
71125;SDS011;58785;55.566;38.058;2023-02-10T04:31:45;12.70;;;2.80;;
71125;SDS011;58785;55.566;38.058;2023-02-10T04:34:10;8.82;;;3.35;;
71125;SDS011;58785;55.566;38.058;2023-02-10T04:36:36;10.40;;;3.63;;
71125;SDS011;58785;55.566;38.058;2023-02-10T04:39:01;11.00;;;3.30;;
71125;SDS011;58785;55.566;38.058;2023-02-10T04:41:27;11.18;;;3.30;;
71125;SDS011;58785;55.566;38.058;2023-02-10T04:43:53;11.90;;;3.43;;
71125;SDS011;58785;55.566;38.058;2023-02-10T04:46:18;10.30;;;3.70;;
71125;SDS011;58785;55.566;38.058;2023-02-10T04:48:44;17.25;;;4.28;;
71125;SDS011;58785;55.566;38.058;2023-02-10T04:51:10;11.40;;;3.60;;
71125;SDS011;58785;55.566;38.058;2023-02-10T04:53:37;11.48;;;3.30;;
71125;SDS011;58785;55.566;38.058;2023-02-10T04:56:05;8.93;;;3.00;;
71125;SDS011;58785;55.566;38.058;2023-02-10T04:58:31;7.97;;;3.00;;
71125;SDS011;58785;55.566;38.058;2023-02-10T05:00:57;10.05;;;3.83;;
71125;SDS011;58785;55.566;38.058;2023-02-10T05:03:23;10.95;;;3.97;;
71125;SDS011;58785;55.566;38.058;2023-02-10T05:05:50;11.68;;;4.07;;
71125;SDS011;58785;55.566;38.058;2023-02-10T05:08:19;14.57;;;3.90;;
71125;SDS011;58785;55.566;38.058;2023-02-10T05:10:48;9.95;;;4.00;;
71125;SDS011;58785;55.566;38.058;2023-02-10T05:13:14;19.40;;;4.15;;
71125;SDS011;58785;55.566;38.058;2023-02-10T05:15:40;14.90;;;3.57;;
71125;SDS011;58785;55.566;38.058;2023-02-10T05:18:05;12.00;;;2.90;;
71125;SDS011;58785;55.566;38.058;2023-02-10T05:20:31;15.15;;;3.67;;
71125;SDS011;58785;55.566;38.058;2023-02-10T05:22:57;10.00;;;3.30;;
71125;SDS011;58785;55.566;38.058;2023-02-10T05:25:22;11.13;;;3.60;;
71125;SDS011;58785;55.566;38.058;2023-02-10T05:27:48;10.30;;;3.23;;
71125;SDS011;58785;55.566;38.058;2023-02-10T05:30:14;8.93;;;2.43;;
71125;SDS011;58785;55.566;38.058;2023-02-10T05:32:41;12.23;;;3.10;;
71125;SDS011;58785;55.566;38.058;2023-02-10T05:35:07;12.48;;;3.40;;
71125;SDS011;58785;55.566;38.058;2023-02-10T05:37:33;14.13;;;3.95;;
71125;SDS011;58785;55.566;38.058;2023-02-10T05:40:00;9.37;;;2.93;;
71125;SDS011;58785;55.566;38.058;2023-02-10T05:42:29;10.27;;;3.57;;
71125;SDS011;58785;55.566;38.058;2023-02-10T05:44:55;11.18;;;3.70;;
71125;SDS011;58785;55.566;38.058;2023-02-10T05:47:21;10.13;;;3.30;;
71125;SDS011;58785;55.566;38.058;2023-02-10T05:49:53;10.68;;;3.85;;
71125;SDS011;58785;55.566;38.058;2023-02-10T05:52:28;10.82;;;3.70;;
71125;SDS011;58785;55.566;38.058;2023-02-10T05:54:54;14.03;;;3.67;;
71125;SDS011;58785;55.566;38.058;2023-02-10T05:57:20;11.85;;;3.55;;
71125;SDS011;58785;55.566;38.058;2023-02-10T06:00:05;11.38;;;3.60;;
71125;SDS011;58785;55.566;38.058;2023-02-10T06:02:31;11.13;;;3.27;;
71125;SDS011;58785;55.566;38.058;2023-02-10T06:05:12;10.70;;;3.45;;
71125;SDS011;58785;55.566;38.058;2023-02-10T06:07:41;11.30;;;3.47;;
71125;SDS011;58785;55.566;38.058;2023-02-10T06:10:06;13.00;;;4.80;;
71125;SDS011;58785;55.566;38.058;2023-02-10T06:12:32;10.88;;;3.70;;
71125;SDS011;58785;55.566;38.058;2023-02-10T06:15:03;13.50;;;5.60;;
71125;SDS011;58785;55.566;38.058;2023-02-10T06:17:29;11.10;;;3.95;;
71125;SDS011;58785;55.566;38.058;2023-02-10T06:19:58;11.70;;;3.90;;
71125;SDS011;58785;55.566;38.058;2023-02-10T06:22:26;10.27;;;3.78;;
71125;SDS011;58785;55.566;38.058;2023-02-10T06:24:53;11.63;;;4.28;;
71125;SDS011;58785;55.566;38.058;2023-02-10T06:27:28;10.35;;;3.58;;
71125;SDS011;58785;55.566;38.058;2023-02-10T06:30:20;11.95;;;3.85;;
71125;SDS011;58785;55.566;38.058;2023-02-10T06:32:46;13.43;;;4.53;;
71125;SDS011;58785;55.566;38.058;2023-02-10T06:35:12;10.38;;;3.42;;
71125;SDS011;58785;55.566;38.058;2023-02-10T06:37:38;9.88;;;3.97;;
71125;SDS011;58785;55.566;38.058;2023-02-10T06:40:04;11.57;;;3.83;;
71125;SDS011;58785;55.566;38.058;2023-02-10T06:42:35;12.05;;;3.72;;
71125;SDS011;58785;55.566;38.058;2023-02-10T06:45:00;10.23;;;3.60;;
71125;SDS011;58785;55.566;38.058;2023-02-10T06:47:29;10.23;;;3.67;;
71125;SDS011;58785;55.566;38.058;2023-02-10T06:52:55;11.43;;;3.65;;
71125;SDS011;58785;55.566;38.058;2023-02-10T06:55:23;10.23;;;3.27;;
71125;SDS011;58785;55.566;38.058;2023-02-10T06:57:52;13.68;;;4.45;;
71125;SDS011;58785;55.566;38.058;2023-02-10T07:00:59;9.45;;;3.65;;
71125;SDS011;58785;55.566;38.058;2023-02-10T07:03:27;10.13;;;3.60;;
71125;SDS011;58785;55.566;38.058;2023-02-10T07:05:57;10.00;;;3.55;;
71125;SDS011;58785;55.566;38.058;2023-02-10T07:08:23;10.37;;;3.70;;
71125;SDS011;58785;55.566;38.058;2023-02-10T07:10:49;10.10;;;3.83;;
71125;SDS011;58785;55.566;38.058;2023-02-10T07:13:14;18.37;;;3.87;;
71125;SDS011;58785;55.566;38.058;2023-02-10T07:15:40;22.55;;;5.65;;
71125;SDS011;58785;55.566;38.058;2023-02-10T07:18:10;12.52;;;4.22;;
71125;SDS011;58785;55.566;38.058;2023-02-10T07:20:36;10.90;;;4.03;;
71125;SDS011;58785;55.566;38.058;2023-02-10T07:23:11;15.02;;;4.55;;
71125;SDS011;58785;55.566;38.058;2023-02-10T07:25:37;10.00;;;4.03;;
71125;SDS011;58785;55.566;38.058;2023-02-10T07:28:02;12.90;;;4.17;;
71125;SDS011;58785;55.566;38.058;2023-02-10T07:30:28;12.32;;;3.83;;
71125;SDS011;58785;55.566;38.058;2023-02-10T07:32:54;14.90;;;4.10;;
71125;SDS011;58785;55.566;38.058;2023-02-10T07:35:19;11.30;;;4.20;;
71125;SDS011;58785;55.566;38.058;2023-02-10T07:37:46;13.68;;;4.72;;
71125;SDS011;58785;55.566;38.058;2023-02-10T07:40:11;16.47;;;5.50;;
71125;SDS011;58785;55.566;38.058;2023-02-10T07:42:37;12.93;;;4.90;;
71125;SDS011;58785;55.566;38.058;2023-02-10T07:45:04;12.70;;;4.30;;
71125;SDS011;58785;55.566;38.058;2023-02-10T07:47:41;13.13;;;4.78;;
71125;SDS011;58785;55.566;38.058;2023-02-10T07:50:21;11.63;;;4.20;;
71125;SDS011;58785;55.566;38.058;2023-02-10T07:53:08;10.15;;;3.50;;
71125;SDS011;58785;55.566;38.058;2023-02-10T07:55:33;12.53;;;4.30;;
71125;SDS011;58785;55.566;38.058;2023-02-10T07:58:01;14.45;;;3.58;;
71125;SDS011;58785;55.566;38.058;2023-02-10T08:00:28;10.13;;;3.92;;
71125;SDS011;58785;55.566;38.058;2023-02-10T08:03:06;9.93;;;3.33;;
71125;SDS011;58785;55.566;38.058;2023-02-10T08:05:38;10.05;;;3.90;;
71125;SDS011;58785;55.566;38.058;2023-02-10T08:08:04;12.02;;;4.10;;
71125;SDS011;58785;55.566;38.058;2023-02-10T08:10:30;9.87;;;3.17;;
71125;SDS011;58785;55.566;38.058;2023-02-10T08:12:55;11.02;;;4.60;;
71125;SDS011;58785;55.566;38.058;2023-02-10T08:15:21;11.67;;;4.43;;
71125;SDS011;58785;55.566;38.058;2023-02-10T08:17:47;13.63;;;4.57;;
71125;SDS011;58785;55.566;38.058;2023-02-10T08:20:13;11.10;;;3.93;;
71125;SDS011;58785;55.566;38.058;2023-02-10T08:22:39;13.77;;;4.68;;
71125;SDS011;58785;55.566;38.058;2023-02-10T08:25:04;14.03;;;5.17;;
71125;SDS011;58785;55.566;38.058;2023-02-10T08:27:30;13.88;;;4.72;;
71125;SDS011;58785;55.566;38.058;2023-02-10T08:29:56;13.45;;;4.70;;
71125;SDS011;58785;55.566;38.058;2023-02-10T08:32:22;12.10;;;3.90;;
71125;SDS011;58785;55.566;38.058;2023-02-10T08:34:48;10.23;;;3.78;;
71125;SDS011;58785;55.566;38.058;2023-02-10T08:37:14;13.20;;;3.63;;
71125;SDS011;58785;55.566;38.058;2023-02-10T08:39:41;13.38;;;4.00;;
71125;SDS011;58785;55.566;38.058;2023-02-10T08:42:08;13.65;;;4.55;;
71125;SDS011;58785;55.566;38.058;2023-02-10T08:44:34;14.47;;;3.73;;
71125;SDS011;58785;55.566;38.058;2023-02-10T08:46:59;12.65;;;3.80;;
71125;SDS011;58785;55.566;38.058;2023-02-10T08:49:25;10.30;;;3.05;;
71125;SDS011;58785;55.566;38.058;2023-02-10T08:51:52;10.67;;;3.60;;
71125;SDS011;58785;55.566;38.058;2023-02-10T08:54:18;12.38;;;3.78;;
71125;SDS011;58785;55.566;38.058;2023-02-10T08:56:44;12.02;;;4.10;;
71125;SDS011;58785;55.566;38.058;2023-02-10T08:59:09;10.73;;;4.13;;
71125;SDS011;58785;55.566;38.058;2023-02-10T09:01:35;12.98;;;4.68;;
71125;SDS011;58785;55.566;38.058;2023-02-10T09:04:01;12.95;;;3.88;;
71125;SDS011;58785;55.566;38.058;2023-02-10T09:06:29;11.47;;;4.13;;
71125;SDS011;58785;55.566;38.058;2023-02-10T09:09:05;10.68;;;4.03;;
71125;SDS011;58785;55.566;38.058;2023-02-10T09:11:31;10.60;;;3.97;;
71125;SDS011;58785;55.566;38.058;2023-02-10T09:13:57;12.03;;;3.83;;
71125;SDS011;58785;55.566;38.058;2023-02-10T09:16:22;8.17;;;3.13;;
71125;SDS011;58785;55.566;38.058;2023-02-10T09:18:48;11.20;;;3.47;;
71125;SDS011;58785;55.566;38.058;2023-02-10T09:21:14;8.97;;;3.40;;
71125;SDS011;58785;55.566;38.058;2023-02-10T09:23:39;11.60;;;4.10;;
71125;SDS011;58785;55.566;38.058;2023-02-10T09:26:05;17.52;;;4.30;;
71125;SDS011;58785;55.566;38.058;2023-02-10T09:28:30;14.40;;;3.80;;
71125;SDS011;58785;55.566;38.058;2023-02-10T09:30:56;13.48;;;4.57;;
71125;SDS011;58785;55.566;38.058;2023-02-10T09:33:22;11.73;;;3.63;;
71125;SDS011;58785;55.566;38.058;2023-02-10T09:35:48;10.50;;;3.25;;
71125;SDS011;58785;55.566;38.058;2023-02-10T09:38:13;11.40;;;3.38;;
71125;SDS011;58785;55.566;38.058;2023-02-10T09:41:02;13.20;;;3.93;;
71125;SDS011;58785;55.566;38.058;2023-02-10T09:46:24;10.68;;;3.85;;
71125;SDS011;58785;55.566;38.058;2023-02-10T09:54:13;10.20;;;3.03;;
71125;SDS011;58785;55.566;38.058;2023-02-10T09:56:40;11.32;;;3.90;;
71125;SDS011;58785;55.566;38.058;2023-02-10T09:59:06;11.00;;;3.70;;
71125;SDS011;58785;55.566;38.058;2023-02-10T10:01:46;11.30;;;3.38;;
71125;SDS011;58785;55.566;38.058;2023-02-10T10:04:25;12.25;;;3.20;;
71125;SDS011;58785;55.566;38.058;2023-02-10T10:06:55;8.95;;;3.13;;
71125;SDS011;58785;55.566;38.058;2023-02-10T10:12:16;8.40;;;3.50;;
71125;SDS011;58785;55.566;38.058;2023-02-10T10:14:43;12.70;;;3.20;;
71125;SDS011;58785;55.566;38.058;2023-02-10T10:20:41;11.10;;;3.90;;
71125;SDS011;58785;55.566;38.058;2023-02-10T10:28:32;11.75;;;3.22;;
71125;SDS011;58785;55.566;38.058;2023-02-10T10:31:21;9.85;;;3.25;;
71125;SDS011;58785;55.566;38.058;2023-02-10T10:34:02;14.60;;;3.22;;
71125;SDS011;58785;55.566;38.058;2023-02-10T10:36:34;10.55;;;4.07;;
71125;SDS011;58785;55.566;38.058;2023-02-10T10:39:13;13.50;;;3.10;;
71125;SDS011;58785;55.566;38.058;2023-02-10T10:41:39;13.82;;;3.22;;
71125;SDS011;58785;55.566;38.058;2023-02-10T10:44:08;10.88;;;3.40;;
71125;SDS011;58785;55.566;38.058;2023-02-10T10:46:50;12.88;;;3.60;;
71125;SDS011;58785;55.566;38.058;2023-02-10T10:49:34;7.85;;;2.90;;
71125;SDS011;58785;55.566;38.058;2023-02-10T10:52:01;9.23;;;2.70;;
71125;SDS011;58785;55.566;38.058;2023-02-10T10:54:27;12.35;;;3.33;;
71125;SDS011;58785;55.566;38.058;2023-02-10T10:56:58;10.77;;;3.60;;
71125;SDS011;58785;55.566;38.058;2023-02-10T11:01:58;12.82;;;3.40;;
71125;SDS011;58785;55.566;38.058;2023-02-10T11:04:34;11.10;;;3.40;;
71125;SDS011;58785;55.566;38.058;2023-02-10T11:07:08;9.70;;;2.95;;
71125;SDS011;58785;55.566;38.058;2023-02-10T11:09:37;12.40;;;4.00;;
71125;SDS011;58785;55.566;38.058;2023-02-10T11:12:27;11.95;;;3.90;;
71125;SDS011;58785;55.566;38.058;2023-02-10T11:14:58;11.85;;;3.15;;
71125;SDS011;58785;55.566;38.058;2023-02-10T11:22:30;11.25;;;3.13;;
71125;SDS011;58785;55.566;38.058;2023-02-10T11:24:57;8.97;;;3.37;;
71125;SDS011;58785;55.566;38.058;2023-02-10T11:27:25;12.45;;;3.40;;
71125;SDS011;58785;55.566;38.058;2023-02-10T11:29:55;11.30;;;3.90;;
71125;SDS011;58785;55.566;38.058;2023-02-10T11:32:25;11.13;;;4.10;;
71125;SDS011;58785;55.566;38.058;2023-02-10T11:34:55;12.67;;;3.43;;
71125;SDS011;58785;55.566;38.058;2023-02-10T11:37:26;9.32;;;3.33;;
71125;SDS011;58785;55.566;38.058;2023-02-10T11:39:56;11.10;;;3.45;;
71125;SDS011;58785;55.566;38.058;2023-02-10T11:42:31;10.48;;;3.50;;
71125;SDS011;58785;55.566;38.058;2023-02-10T11:45:10;13.25;;;3.40;;
71125;SDS011;58785;55.566;38.058;2023-02-10T12:08:24;10.27;;;4.05;;
71125;SDS011;58785;55.566;38.058;2023-02-10T12:11:43;10.40;;;3.20;;
71125;SDS011;58785;55.566;38.058;2023-02-10T12:19:28;11.27;;;3.15;;
71125;SDS011;58785;55.566;38.058;2023-02-10T12:22:09;11.40;;;3.75;;
71125;SDS011;58785;55.566;38.058;2023-02-10T12:25:01;8.60;;;3.33;;
71125;SDS011;58785;55.566;38.058;2023-02-10T12:33:38;10.07;;;2.38;;
71125;SDS011;58785;55.566;38.058;2023-02-10T12:39:23;11.50;;;3.17;;
71125;SDS011;58785;55.566;38.058;2023-02-10T12:45:25;9.65;;;3.25;;
71125;SDS011;58785;55.566;38.058;2023-02-10T12:53:20;13.37;;;3.27;;
71125;SDS011;58785;55.566;38.058;2023-02-10T12:58:53;11.15;;;2.50;;
71125;SDS011;58785;55.566;38.058;2023-02-10T13:01:33;11.32;;;2.72;;
71125;SDS011;58785;55.566;38.058;2023-02-10T13:04:07;9.60;;;3.60;;
71125;SDS011;58785;55.566;38.058;2023-02-10T13:06:59;9.27;;;3.43;;
71125;SDS011;58785;55.566;38.058;2023-02-10T13:09:39;14.23;;;3.33;;
71125;SDS011;58785;55.566;38.058;2023-02-10T13:17:47;12.38;;;3.50;;
71125;SDS011;58785;55.566;38.058;2023-02-10T13:31:32;11.27;;;3.58;;
71125;SDS011;58785;55.566;38.058;2023-02-10T13:34:04;8.67;;;2.80;;
71125;SDS011;58785;55.566;38.058;2023-02-10T13:39:38;9.75;;;3.33;;
71125;SDS011;58785;55.566;38.058;2023-02-10T13:42:24;9.18;;;3.33;;
71125;SDS011;58785;55.566;38.058;2023-02-10T13:45:06;12.27;;;3.45;;
71125;SDS011;58785;55.566;38.058;2023-02-10T13:52:50;9.82;;;3.47;;
71125;SDS011;58785;55.566;38.058;2023-02-10T13:58:14;13.07;;;3.08;;
71125;SDS011;58785;55.566;38.058;2023-02-10T14:00:43;10.50;;;3.87;;
71125;SDS011;58785;55.566;38.058;2023-02-10T14:13:41;7.80;;;3.35;;
71125;SDS011;58785;55.566;38.058;2023-02-10T14:18:40;11.77;;;3.83;;
71125;SDS011;58785;55.566;38.058;2023-02-10T14:21:15;8.80;;;2.70;;
71125;SDS011;58785;55.566;38.058;2023-02-10T14:23:48;11.90;;;3.90;;
71125;SDS011;58785;55.566;38.058;2023-02-10T14:26:19;9.48;;;3.17;;
71125;SDS011;58785;55.566;38.058;2023-02-10T14:28:50;12.70;;;3.70;;
71125;SDS011;58785;55.566;38.058;2023-02-10T14:31:38;8.75;;;3.08;;
71125;SDS011;58785;55.566;38.058;2023-02-10T14:34:15;9.80;;;3.17;;
71125;SDS011;58785;55.566;38.058;2023-02-10T14:36:56;8.60;;;2.70;;
71125;SDS011;58785;55.566;38.058;2023-02-10T14:39:25;10.45;;;3.28;;
71125;SDS011;58785;55.566;38.058;2023-02-10T14:41:57;10.27;;;3.10;;
71125;SDS011;58785;55.566;38.058;2023-02-10T14:47:02;9.05;;;2.70;;
71125;SDS011;58785;55.566;38.058;2023-02-10T14:49:28;11.60;;;3.50;;
71125;SDS011;58785;55.566;38.058;2023-02-10T14:51:58;9.82;;;3.10;;
71125;SDS011;58785;55.566;38.058;2023-02-10T14:54:24;11.30;;;3.07;;
71125;SDS011;58785;55.566;38.058;2023-02-10T14:57:01;8.70;;;3.00;;
71125;SDS011;58785;55.566;38.058;2023-02-10T14:59:28;8.43;;;2.80;;
71125;SDS011;58785;55.566;38.058;2023-02-10T15:01:59;9.00;;;2.53;;
71125;SDS011;58785;55.566;38.058;2023-02-10T15:04:30;9.17;;;3.30;;
71125;SDS011;58785;55.566;38.058;2023-02-10T15:06:57;10.25;;;3.58;;
71125;SDS011;58785;55.566;38.058;2023-02-10T15:09:30;9.43;;;2.95;;
71125;SDS011;58785;55.566;38.058;2023-02-10T15:12:04;10.13;;;3.53;;
71125;SDS011;58785;55.566;38.058;2023-02-10T15:14:55;11.30;;;3.67;;
71125;SDS011;58785;55.566;38.058;2023-02-10T15:17:57;16.20;;;3.10;;
71125;SDS011;58785;55.566;38.058;2023-02-10T15:20:20;7.55;;;2.67;;
71125;SDS011;58785;55.566;38.058;2023-02-10T15:27:59;11.52;;;3.67;;
71125;SDS011;58785;55.566;38.058;2023-02-10T15:33:14;9.10;;;3.10;;
71125;SDS011;58785;55.566;38.058;2023-02-10T15:35:52;10.15;;;3.20;;
71125;SDS011;58785;55.566;38.058;2023-02-10T15:38:44;11.00;;;3.53;;
71125;SDS011;58785;55.566;38.058;2023-02-10T15:46:46;15.02;;;3.92;;
71125;SDS011;58785;55.566;38.058;2023-02-10T15:49:16;12.90;;;3.83;;
71125;SDS011;58785;55.566;38.058;2023-02-10T15:51:46;11.18;;;3.65;;
71125;SDS011;58785;55.566;38.058;2023-02-10T15:54:16;11.57;;;4.53;;
71125;SDS011;58785;55.566;38.058;2023-02-10T15:56:54;11.17;;;3.40;;
71125;SDS011;58785;55.566;38.058;2023-02-10T15:59:21;17.10;;;4.40;;
71125;SDS011;58785;55.566;38.058;2023-02-10T16:01:52;13.13;;;4.53;;
71125;SDS011;58785;55.566;38.058;2023-02-10T16:04:23;13.13;;;4.85;;
71125;SDS011;58785;55.566;38.058;2023-02-10T16:06:49;12.95;;;5.13;;
71125;SDS011;58785;55.566;38.058;2023-02-10T16:09:16;15.00;;;4.77;;
71125;SDS011;58785;55.566;38.058;2023-02-10T16:11:41;12.48;;;4.18;;
71125;SDS011;58785;55.566;38.058;2023-02-10T16:14:07;11.18;;;4.68;;
71125;SDS011;58785;55.566;38.058;2023-02-10T16:16:33;10.43;;;3.40;;
71125;SDS011;58785;55.566;38.058;2023-02-10T16:19:04;13.60;;;3.78;;
71125;SDS011;58785;55.566;38.058;2023-02-10T16:21:31;12.30;;;4.07;;
71125;SDS011;58785;55.566;38.058;2023-02-10T16:23:57;12.57;;;3.83;;
71125;SDS011;58785;55.566;38.058;2023-02-10T16:26:23;11.35;;;4.22;;
71125;SDS011;58785;55.566;38.058;2023-02-10T16:28:49;11.23;;;4.90;;
71125;SDS011;58785;55.566;38.058;2023-02-10T16:31:16;10.63;;;3.50;;
71125;SDS011;58785;55.566;38.058;2023-02-10T16:33:44;12.38;;;4.00;;
71125;SDS011;58785;55.566;38.058;2023-02-10T16:36:12;9.63;;;3.80;;
71125;SDS011;58785;55.566;38.058;2023-02-10T16:38:39;15.40;;;4.93;;
71125;SDS011;58785;55.566;38.058;2023-02-10T16:41:05;10.90;;;4.27;;
71125;SDS011;58785;55.566;38.058;2023-02-10T16:43:32;10.05;;;3.60;;
71125;SDS011;58785;55.566;38.058;2023-02-10T16:45:58;10.20;;;3.35;;
71125;SDS011;58785;55.566;38.058;2023-02-10T16:48:23;16.63;;;5.27;;
71125;SDS011;58785;55.566;38.058;2023-02-10T16:50:49;15.23;;;3.78;;
71125;SDS011;58785;55.566;38.058;2023-02-10T16:53:15;14.87;;;4.37;;
71125;SDS011;58785;55.566;38.058;2023-02-10T16:55:40;12.48;;;3.47;;
71125;SDS011;58785;55.566;38.058;2023-02-10T16:58:06;13.10;;;4.17;;
71125;SDS011;58785;55.566;38.058;2023-02-10T17:00:37;13.52;;;3.72;;
71125;SDS011;58785;55.566;38.058;2023-02-10T17:03:03;12.02;;;4.10;;
71125;SDS011;58785;55.566;38.058;2023-02-10T17:05:28;16.63;;;5.27;;
71125;SDS011;58785;55.566;38.058;2023-02-10T17:07:55;13.40;;;4.32;;
71125;SDS011;58785;55.566;38.058;2023-02-10T17:10:22;12.95;;;4.53;;
71125;SDS011;58785;55.566;38.058;2023-02-10T17:12:49;15.65;;;5.78;;
71125;SDS011;58785;55.566;38.058;2023-02-10T17:15:15;15.50;;;5.43;;
71125;SDS011;58785;55.566;38.058;2023-02-10T17:17:41;13.55;;;4.63;;
71125;SDS011;58785;55.566;38.058;2023-02-10T17:20:13;13.82;;;5.07;;
71125;SDS011;58785;55.566;38.058;2023-02-10T17:23:00;12.05;;;4.72;;
71125;SDS011;58785;55.566;38.058;2023-02-10T17:25:29;11.40;;;4.45;;